Time;durP1;ratioP1;P1;durP2;ratioP2;P2;SDS_P1;SDS_P2;PMS_P1;PMS_P2;Temp;Humidity;BMP_temperature;BMP_pressure;BME280_temperature;BME280_humidity;BME280_pressure;Samples;Min_cycle;Max_cycle;Signal;HPM_P1;HPM_P2
2023/12/31 00:01:42;;;;;;;1999.90;999.90;;;10.70;99.90;;;;;;5055102;28;20029;-76
2023/12/31 00:04:08;;;;;;;1999.90;999.90;;;10.70;99.90;;;;;;5055026;28;20017;-74
2023/12/31 00:06:33;;;;;;;1999.90;999.90;;;10.70;99.90;;;;;;5055362;28;20460;-76
2023/12/31 00:08:59;;;;;;;1999.90;999.90;;;10.70;99.90;;;;;;5054581;28;20103;-77
2023/12/31 00:11:25;;;;;;;1999.90;999.90;;;10.80;99.90;;;;;;5054623;28;20384;-77
2023/12/31 00:13:50;;;;;;;1999.90;999.90;;;10.80;99.90;;;;;;5054707;28;20033;-80
2023/12/31 00:16:16;;;;;;;1999.90;999.90;;;10.90;99.90;;;;;;5036825;28;20052;-77
2023/12/31 00:18:41;;;;;;;1999.90;999.90;;;10.80;99.90;;;;;;5054880;28;20447;-73
2023/12/31 00:21:07;;;;;;;1999.90;999.90;;;10.90;99.90;;;;;;5054386;28;20032;-77
2023/12/31 00:23:33;;;;;;;1999.90;999.90;;;10.80;99.90;;;;;;5046626;28;20391;-78
2023/12/31 00:25:58;;;;;;;1999.90;999.90;;;10.90;99.90;;;;;;5047381;28;20492;-77
2023/12/31 00:28:24;;;;;;;1999.90;999.90;;;10.90;99.90;;;;;;5054730;28;20025;-79
2023/12/31 00:30:49;;;;;;;1999.90;999.90;;;10.90;99.90;;;;;;5054729;28;20036;-76
2023/12/31 00:33:16;;;;;;;1999.90;999.90;;;10.90;99.90;;;;;;5054546;28;20116;-77
2023/12/31 00:35:41;;;;;;;1999.90;999.90;;;10.90;99.90;;;;;;5054146;28;20037;-76
2023/12/31 00:38:07;;;;;;;1999.90;999.90;;;10.90;99.90;;;;;;5054347;28;20078;-78
2023/12/31 00:40:33;;;;;;;1999.90;999.90;;;10.90;99.90;;;;;;5054031;28;20032;-76
2023/12/31 00:42:58;;;;;;;1999.90;999.90;;;11.00;99.90;;;;;;5054246;28;20021;-75
2023/12/31 00:45:24;;;;;;;1999.90;999.90;;;11.00;99.90;;;;;;5054287;28;20036;-80
2023/12/31 00:47:49;;;;;;;1999.90;999.90;;;11.00;99.90;;;;;;5053328;28;20028;-78
2023/12/31 00:50:15;;;;;;;1999.90;999.90;;;11.10;99.90;;;;;;5036020;28;20480;-79
2023/12/31 00:52:41;;;;;;;1999.90;999.90;;;11.10;99.90;;;;;;5054057;28;20020;-77
2023/12/31 00:55:07;;;;;;;1999.90;999.90;;;11.10;99.90;;;;;;5054132;28;20463;-77
2023/12/31 00:57:32;;;;;;;1999.90;999.90;;;11.10;99.90;;;;;;5053929;28;20487;-74
2023/12/31 00:59:58;;;;;;;1999.90;999.90;;;11.20;99.90;;;;;;5035963;28;20021;-77
2023/12/31 01:02:24;;;;;;;1999.90;999.90;;;11.20;99.90;;;;;;5035954;28;20032;-78
2023/12/31 01:04:49;;;;;;;1999.90;999.90;;;11.20;99.90;;;;;;5053970;28;20029;-77
2023/12/31 01:07:17;;;;;;;1999.90;999.90;;;11.20;99.90;;;;;;5053309;28;20032;-77
2023/12/31 01:09:42;;;;;;;1999.90;999.90;;;11.20;99.90;;;;;;5053096;28;20025;-75
2023/12/31 01:12:08;;;;;;;1999.90;999.90;;;11.00;99.90;;;;;;5035752;28;20532;-72
2023/12/31 01:14:37;;;;;;;1999.90;999.90;;;10.50;99.90;;;;;;5053577;28;20045;-75
2023/12/31 01:17:03;;;;;;;1999.90;999.90;;;10.30;99.90;;;;;;5053577;28;20553;-75
2023/12/31 01:19:28;;;;;;;1999.90;999.90;;;10.20;99.90;;;;;;5053678;28;20033;-74
2023/12/31 01:21:55;;;;;;;1999.90;999.90;;;10.10;99.90;;;;;;5051898;28;20155;-74
2023/12/31 01:24:21;;;;;;;1999.90;999.90;;;10.00;99.90;;;;;;5040832;28;20029;-75
2023/12/31 01:26:46;;;;;;;1999.90;999.90;;;10.00;99.90;;;;;;5053362;28;20032;-74
2023/12/31 01:29:12;;;;;;;1999.90;999.90;;;9.90;99.90;;;;;;5053211;28;20033;-76
2023/12/31 01:31:38;;;;;;;1999.90;999.90;;;9.90;99.90;;;;;;5035378;28;20155;-76
2023/12/31 01:34:04;;;;;;;1999.90;999.90;;;10.00;99.90;;;;;;5035604;28;20028;-76
2023/12/31 01:36:29;;;;;;;1999.90;999.90;;;10.00;99.90;;;;;;5053084;28;20021;-76
2023/12/31 01:38:55;;;;;;;1999.90;999.90;;;10.10;99.90;;;;;;5053040;28;20032;-76
2023/12/31 01:41:21;;;;;;;1999.90;999.90;;;10.10;99.90;;;;;;5053280;28;20491;-76
2023/12/31 01:43:49;;;;;;;1999.90;999.90;;;10.10;99.90;;;;;;5053026;28;20028;-78
2023/12/31 01:46:32;;;;;;;1999.90;999.90;;;10.20;99.90;;;;;;5035159;28;20029;-77
2023/12/31 01:48:59;;;;;;;;;;;10.20;99.90;;;;;;5035596;28;20044;-74
2023/12/31 01:51:26;;;;;;;1999.90;999.90;;;10.20;99.90;;;;;;5053200;28;20366;-74
2023/12/31 01:53:52;;;;;;;1999.90;999.90;;;10.10;99.90;;;;;;5053025;28;20051;-76
2023/12/31 01:56:19;;;;;;;1999.90;999.90;;;10.10;99.90;;;;;;5052629;28;20032;-77
2023/12/31 01:58:47;;;;;;;1999.90;999.90;;;10.10;99.90;;;;;;5053144;28;20029;-76
2023/12/31 02:01:14;;;;;;;1999.90;999.90;;;10.20;99.90;;;;;;5053081;28;20013;-78
2023/12/31 02:03:39;;;;;;;1999.90;999.90;;;10.20;99.90;;;;;;5052734;28;20094;-74
2023/12/31 02:06:06;;;;;;;1999.90;999.90;;;10.20;99.90;;;;;;5052805;28;20025;-73
2023/12/31 02:08:31;;;;;;;1999.90;999.90;;;10.20;99.90;;;;;;5052758;28;20021;-76
2023/12/31 02:10:57;;;;;;;1999.90;999.90;;;10.00;99.90;;;;;;5034509;28;20110;-78
2023/12/31 02:13:23;;;;;;;1999.90;999.90;;;10.00;99.90;;;;;;5052681;28;20044;-75
2023/12/31 02:15:52;;;;;;;1999.90;999.90;;;10.00;99.90;;;;;;5052458;28;20472;-75
2023/12/31 02:18:17;;;;;;;1999.90;999.90;;;10.00;99.90;;;;;;5052641;28;20044;-75
2023/12/31 02:20:44;;;;;;;1999.90;999.90;;;10.00;99.90;;;;;;5052518;28;20376;-74
2023/12/31 02:23:09;;;;;;;1999.90;999.90;;;10.00;99.90;;;;;;5044551;28;20024;-74
2023/12/31 02:25:39;;;;;;;1999.90;999.90;;;10.00;99.90;;;;;;5045739;28;20029;-75
2023/12/31 02:28:08;;;;;;;1999.90;999.90;;;10.00;99.90;;;;;;5052569;28;20462;-75
2023/12/31 02:30:34;;;;;;;1999.90;999.90;;;10.00;99.90;;;;;;5034675;28;20021;-78
2023/12/31 02:32:59;;;;;;;1999.90;999.90;;;9.90;99.90;;;;;;5052438;28;20565;-75
2023/12/31 02:35:25;;;;;;;1999.90;999.90;;;9.90;99.90;;;;;;5052657;28;20031;-77
2023/12/31 02:37:50;;;;;;;1999.90;999.90;;;9.80;99.90;;;;;;5052082;28;20402;-80
2023/12/31 02:40:16;;;;;;;1999.90;999.90;;;9.80;99.90;;;;;;5052371;28;20031;-79
2023/12/31 02:42:42;;;;;;;1999.90;999.90;;;9.90;99.90;;;;;;5034294;28;20025;-77
2023/12/31 02:45:08;;;;;;;1999.90;999.90;;;10.00;99.90;;;;;;5052409;28;20021;-83
2023/12/31 02:47:33;;;;;;;1999.90;999.90;;;10.10;99.90;;;;;;5052329;28;20445;-74
2023/12/31 02:49:59;;;;;;;1999.90;999.90;;;10.20;99.90;;;;;;5052256;28;20029;-80
2023/12/31 02:52:25;;;;;;;1999.90;999.90;;;10.30;99.90;;;;;;5052317;28;20025;-78
2023/12/31 02:54:50;;;;;;;1999.90;999.90;;;10.40;99.90;;;;;;5052398;28;20408;-76
2023/12/31 02:57:17;;;;;;;1999.90;999.90;;;10.50;99.90;;;;;;5051692;28;20405;-80
2023/12/31 02:59:43;;;;;;;1999.90;999.90;;;10.60;99.90;;;;;;5052611;28;20032;-79
2023/12/31 03:02:08;;;;;;;1999.90;999.90;;;10.60;99.90;;;;;;5034199;28;20029;-79
2023/12/31 03:04:39;;;;;;;1999.90;999.90;;;10.80;99.90;;;;;;5052165;28;20025;-76
2023/12/31 03:07:04;;;;;;;1999.90;999.90;;;10.90;99.90;;;;;;5051619;28;20036;-81
2023/12/31 03:09:30;;;;;;;1999.90;999.90;;;11.10;99.90;;;;;;5051565;28;20025;-76
2023/12/31 03:11:56;;;;;;;1999.90;999.90;;;11.20;99.90;;;;;;5052034;28;20087;-78
2023/12/31 03:14:21;;;;;;;1999.90;999.90;;;11.30;99.90;;;;;;5052757;28;20031;-76
2023/12/31 03:16:47;;;;;;;1999.90;999.90;;;11.40;99.90;;;;;;5037919;28;20060;-81
2023/12/31 03:19:13;;;;;;;1999.90;999.90;;;11.50;99.90;;;;;;5055837;28;20384;-75
2023/12/31 03:21:40;;;;;;;1999.90;999.90;;;11.70;99.90;;;;;;5055473;28;20539;-78
2023/12/31 03:24:06;;;;;;;1999.90;999.90;;;11.80;99.90;;;;;;5047888;28;20100;-72
2023/12/31 03:26:32;;;;;;;1999.90;999.90;;;11.80;99.90;;;;;;5049090;28;20091;-73
2023/12/31 03:28:57;;;;;;;1999.90;999.90;;;11.90;99.90;;;;;;5055556;28;20021;-75
2023/12/31 03:31:23;;;;;;;1999.90;999.90;;;11.90;99.90;;;;;;5056086;28;20024;-77
2023/12/31 03:33:48;;;;;;;1999.90;999.90;;;11.80;99.90;;;;;;5037524;28;20056;-74
2023/12/31 03:36:14;;;;;;;1999.90;999.90;;;12.00;99.90;;;;;;5056356;28;20037;-76
2023/12/31 03:38:40;;;;;;;1999.90;999.90;;;11.90;99.90;;;;;;5055927;28;20094;-73
2023/12/31 03:41:06;;;;;;;1999.90;999.90;;;11.90;99.90;;;;;;5055422;28;20021;-76
2023/12/31 03:43:31;;;;;;;1999.90;999.90;;;11.90;99.90;;;;;;5055826;28;20029;-75
2023/12/31 03:45:57;;;;;;;1999.90;999.90;;;11.90;99.90;;;;;;5055482;28;20024;-76
2023/12/31 03:48:23;;;;;;;1999.90;999.90;;;11.40;99.90;;;;;;5055453;28;20463;-76
2023/12/31 03:50:49;;;;;;;1999.90;999.90;;;10.60;99.90;;;;;;5055299;28;20029;-75
2023/12/31 03:53:14;;;;;;;1999.90;999.90;;;10.00;99.90;;;;;;5055212;28;20044;-76
2023/12/31 03:55:41;;;;;;;1999.90;999.90;;;9.60;99.90;;;;;;5055064;28;20487;-76
2023/12/31 03:58:07;;;;;;;1999.90;999.90;;;9.50;99.90;;;;;;5054508;28;20043;-76
2023/12/31 04:00:34;;;;;;;1999.90;999.90;;;9.40;99.90;;;;;;5055110;28;20028;-76
2023/12/31 04:03:00;;;;;;;1999.90;999.90;;;9.50;99.90;;;;;;5054954;28;20021;-75
2023/12/31 04:05:25;;;;;;;1999.90;999.90;;;9.70;99.90;;;;;;5055089;28;20017;-76
2023/12/31 04:07:51;;;;;;;1999.90;999.90;;;9.90;99.90;;;;;;5054952;28;20025;-76
2023/12/31 04:10:17;;;;;;;1999.90;999.90;;;10.20;99.90;;;;;;5054495;28;20025;-78
2023/12/31 04:12:42;;;;;;;1999.90;999.90;;;10.40;99.90;;;;;;5055051;28;20090;-76
2023/12/31 04:15:08;;;;;;;1999.90;999.90;;;10.40;99.90;;;;;;5054160;28;20507;-79
2023/12/31 04:17:34;;;;;;;1999.90;999.90;;;10.40;99.90;;;;;;5054390;28;20045;-77
2023/12/31 04:20:00;;;;;;;1999.90;999.90;;;10.40;99.90;;;;;;5054696;28;20035;-74
2023/12/31 04:22:26;;;;;;;1999.90;999.90;;;10.40;99.90;;;;;;5050928;28;20025;-77
2023/12/31 04:24:52;;;;;;;1999.90;999.90;;;10.50;99.90;;;;;;5044206;28;20022;-76
2023/12/31 04:27:19;;;;;;;1999.90;999.90;;;10.60;99.90;;;;;;5053657;28;20040;-78
2023/12/31 04:29:45;;;;;;;1999.90;999.90;;;10.50;99.90;;;;;;5054888;28;20028;-77
2023/12/31 04:32:10;;;;;;;1999.90;999.90;;;10.60;99.90;;;;;;5054710;28;20132;-77
2023/12/31 04:34:36;;;;;;;1999.90;999.90;;;10.70;99.90;;;;;;5054503;28;20037;-78
2023/12/31 04:37:02;;;;;;;1999.90;999.90;;;10.80;99.90;;;;;;5053976;28;20035;-77
2023/12/31 04:39:28;;;;;;;1999.90;999.90;;;10.80;99.90;;;;;;5054330;28;20029;-76
2023/12/31 04:41:54;;;;;;;1999.90;999.90;;;10.90;99.90;;;;;;5054367;28;20049;-74
2023/12/31 04:44:20;;;;;;;1999.90;999.90;;;11.00;99.90;;;;;;5036344;28;20025;-75
2023/12/31 04:46:46;;;;;;;1999.90;999.90;;;10.90;99.90;;;;;;5054169;28;20087;-77
2023/12/31 04:49:15;;;;;;;1999.90;999.90;;;10.90;99.90;;;;;;5053955;28;20051;-77
2023/12/31 04:51:41;;;;;;;1999.90;999.90;;;10.80;99.90;;;;;;5036343;28;20025;-75
2023/12/31 04:54:07;;;;;;;1999.90;999.90;;;10.80;99.90;;;;;;5054017;28;20048;-79
2023/12/31 04:56:33;;;;;;;1999.90;999.90;;;10.90;99.90;;;;;;5054175;28;20500;-77
2023/12/31 04:58:59;;;;;;;1999.90;999.90;;;10.90;99.90;;;;;;5053662;28;20024;-78
2023/12/31 05:01:31;;;;;;;1999.90;999.90;;;10.90;99.90;;;;;;5053445;28;20017;-77
2023/12/31 05:03:58;;;;;;;1999.90;999.90;;;10.90;99.90;;;;;;5053494;28;20060;-76
2023/12/31 05:06:24;;;;;;;1999.90;999.90;;;11.00;99.90;;;;;;5054217;28;20028;-77
2023/12/31 05:08:50;;;;;;;1999.90;999.90;;;10.90;99.90;;;;;;5053440;28;20021;-78
2023/12/31 05:11:16;;;;;;;1999.90;999.90;;;10.90;99.90;;;;;;5035421;28;20408;-77
2023/12/31 05:13:43;;;;;;;1999.90;999.90;;;10.90;99.90;;;;;;5053554;28;20037;-77
2023/12/31 05:16:14;;;;;;;1999.90;999.90;;;10.80;99.90;;;;;;5053376;28;20053;-79
2023/12/31 05:18:46;;;;;;;1999.90;999.90;;;10.80;99.90;;;;;;5052377;28;20110;-77
2023/12/31 05:21:12;;;;;;;1999.90;999.90;;;10.90;99.90;;;;;;5053179;28;20491;-76
2023/12/31 05:23:39;;;;;;;1999.90;999.90;;;10.80;99.90;;;;;;5045715;28;20086;-74
2023/12/31 05:26:04;;;;;;;1999.90;999.90;;;10.80;99.90;;;;;;5047018;28;20052;-75
2023/12/31 05:28:30;;;;;;;1999.90;999.90;;;10.80;99.90;;;;;;5052916;28;20569;-77
2023/12/31 05:30:55;;;;;;;1999.90;999.90;;;10.70;99.90;;;;;;5053291;28;20052;-77
2023/12/31 05:33:21;;;;;;;1999.90;999.90;;;10.60;99.90;;;;;;5053166;28;20039;-77
2023/12/31 05:35:47;;;;;;;1999.90;999.90;;;10.60;99.90;;;;;;5053287;28;20365;-77
2023/12/31 05:38:12;;;;;;;1999.90;999.90;;;10.60;99.90;;;;;;5052495;28;20086;-77
2023/12/31 05:40:38;;;;;;;1999.90;999.90;;;10.60;99.90;;;;;;5053086;28;20021;-77
2023/12/31 05:43:04;;;;;;;1999.90;999.90;;;10.60;99.90;;;;;;5053001;28;20031;-77
2023/12/31 05:45:30;;;;;;;1999.90;999.90;;;10.60;99.90;;;;;;5035280;28;20459;-77
2023/12/31 05:47:56;;;;;;;1999.90;999.90;;;10.60;99.90;;;;;;5034988;28;20037;-79
2023/12/31 05:50:21;;;;;;;1999.90;999.90;;;10.80;99.90;;;;;;5052584;28;20032;-78
2023/12/31 05:52:47;;;;;;;1999.90;999.90;;;10.80;99.90;;;;;;5053003;28;20056;-77
2023/12/31 05:55:13;;;;;;;1999.90;999.90;;;10.80;99.90;;;;;;5052993;28;20025;-77
2023/12/31 05:57:40;;;;;;;1999.90;999.90;;;10.80;99.90;;;;;;5052804;28;20029;-77
2023/12/31 06:00:07;;;;;;;1999.90;999.90;;;10.70;99.90;;;;;;5052734;28;20068;-77
2023/12/31 06:02:32;;;;;;;1999.90;999.90;;;10.80;99.90;;;;;;5034970;28;20102;-76
2023/12/31 06:04:58;;;;;;;1999.90;999.90;;;10.80;99.90;;;;;;5052886;28;20486;-76
2023/12/31 06:07:24;;;;;;;1999.90;999.90;;;10.80;99.90;;;;;;5034941;28;20041;-77
2023/12/31 06:09:50;;;;;;;1999.90;999.90;;;10.90;99.90;;;;;;5052203;28;20104;-77
2023/12/31 06:12:16;;;;;;;1999.90;999.90;;;10.80;99.90;;;;;;5053039;28;20155;-77
2023/12/31 06:14:41;;;;;;;1999.90;999.90;;;10.90;99.90;;;;;;5052463;28;20094;-77
2023/12/31 06:17:07;;;;;;;1999.90;999.90;;;10.80;99.90;;;;;;5052767;28;20044;-77
2023/12/31 06:19:33;;;;;;;1999.90;999.90;;;10.80;99.90;;;;;;5052562;28;20484;-76
2023/12/31 06:21:59;;;;;;;1999.90;999.90;;;10.90;99.90;;;;;;5050851;28;20025;-76
2023/12/31 06:24:25;;;;;;;1999.90;999.90;;;10.90;99.90;;;;;;5044477;28;20036;-77
2023/12/31 06:26:51;;;;;;;1999.90;999.90;;;10.90;99.90;;;;;;5047972;28;20090;-76
2023/12/31 06:29:17;;;;;;;1999.90;999.90;;;11.00;99.90;;;;;;5052369;28;20025;-75
2023/12/31 06:31:43;;;;;;;1999.90;999.90;;;10.90;99.90;;;;;;5052533;28;20029;-76
2023/12/31 06:34:08;;;;;;;1999.90;999.90;;;10.90;99.90;;;;;;5052471;28;20032;-78
2023/12/31 06:36:34;;;;;;;1999.90;999.90;;;10.90;99.90;;;;;;5034343;28;20037;-76
2023/12/31 06:39:00;;;;;;;1999.90;999.90;;;10.90;99.90;;;;;;5052082;28;20025;-78
2023/12/31 06:41:26;;;;;;;1999.90;999.90;;;10.90;99.90;;;;;;5034650;28;20029;-77
2023/12/31 06:43:52;;;;;;;1999.90;999.90;;;10.90;99.90;;;;;;5052293;28;20024;-77
2023/12/31 06:46:17;;;;;;;1999.90;999.90;;;10.80;99.90;;;;;;5052592;28;20048;-78
2023/12/31 06:48:43;;;;;;;1999.90;999.90;;;10.80;99.90;;;;;;5053604;28;20116;-77
2023/12/31 06:51:09;;;;;;;1999.90;999.90;;;10.80;99.90;;;;;;5038272;28;20476;-77
2023/12/31 06:53:34;;;;;;;1999.90;999.90;;;10.80;99.90;;;;;;5056372;28;20029;-77
2023/12/31 06:56:04;;;;;;;1999.90;999.90;;;10.80;99.90;;;;;;5056198;28;20068;-76
2023/12/31 06:58:30;;;;;;;1999.90;999.90;;;10.80;99.90;;;;;;5056606;28;20044;-77
2023/12/31 07:00:56;;;;;;;1999.90;999.90;;;10.90;99.90;;;;;;5056340;28;20057;-77
2023/12/31 07:03:21;;;;;;;1999.90;999.90;;;10.80;99.90;;;;;;5056197;28;20522;-77
2023/12/31 07:05:47;;;;;;;1999.90;999.90;;;10.90;99.90;;;;;;5056054;28;20029;-77
2023/12/31 07:08:14;;;;;;;1999.90;999.90;;;11.00;99.90;;;;;;5055645;28;20019;-77
2023/12/31 07:10:39;;;;;;;1999.90;999.90;;;11.00;99.90;;;;;;5055568;28;20476;-77
2023/12/31 07:13:05;;;;;;;1999.90;999.90;;;10.90;99.90;;;;;;5056075;28;20032;-78
2023/12/31 07:15:31;;;;;;;1999.90;999.90;;;10.80;99.90;;;;;;5054336;28;20052;-76
2023/12/31 07:17:56;;;;;;;1999.90;999.90;;;10.90;99.90;;;;;;5037993;28;20033;-77
2023/12/31 07:20:22;;;;;;;1999.90;999.90;;;10.90;99.90;;;;;;5053984;28;20017;-75
2023/12/31 07:22:48;;;;;;;1999.90;999.90;;;10.90;99.90;;;;;;5026623;28;20025;-77
2023/12/31 07:25:14;;;;;;;1999.90;999.90;;;10.90;99.90;;;;;;5046463;28;20029;-77
2023/12/31 07:27:39;;;;;;;1999.90;999.90;;;11.00;99.90;;;;;;5056042;28;20036;-77
2023/12/31 07:30:06;;;;;;;1999.90;999.90;;;11.00;99.90;;;;;;5037620;28;20498;-77
2023/12/31 07:32:31;;;;;;;1999.90;999.90;;;11.00;99.90;;;;;;5055795;28;20021;-78
2023/12/31 07:34:57;;;;;;;1999.90;999.90;;;11.00;99.90;;;;;;5055692;28;20403;-77
2023/12/31 07:37:23;;;;;;;1999.90;999.90;;;11.10;99.90;;;;;;5055385;28;20025;-76
2023/12/31 07:39:48;;;;;;;1999.90;999.90;;;11.10;99.90;;;;;;5054966;28;20067;-76
2023/12/31 07:42:15;;;;;;;1999.90;999.90;;;11.30;99.90;;;;;;5055497;28;20064;-78
2023/12/31 07:44:40;;;;;;;1999.90;999.90;;;11.30;99.90;;;;;;5055257;28;20017;-77
2023/12/31 07:47:06;;;;;;;1999.90;999.90;;;11.30;99.90;;;;;;5055382;28;20090;-77
2023/12/31 07:49:33;;;;;;;1999.90;999.90;;;11.30;99.90;;;;;;5055441;28;20372;-78
2023/12/31 07:51:59;;;;;;;1999.90;999.90;;;11.30;99.90;;;;;;5055276;28;20113;-78
2023/12/31 07:54:25;;;;;;;1999.90;999.90;;;11.40;99.90;;;;;;5055303;28;20034;-77
2023/12/31 07:56:51;;;;;;;1999.90;999.90;;;11.50;99.90;;;;;;5055190;28;20028;-78
2023/12/31 07:59:17;;;;;;;1999.90;999.90;;;11.60;99.90;;;;;;5055248;28;20029;-78
2023/12/31 08:01:43;;;;;;;1999.90;999.90;;;11.60;99.90;;;;;;5054369;28;20488;-79
2023/12/31 08:04:08;;;;;;;1999.90;999.90;;;11.60;99.90;;;;;;5054912;28;20021;-78
2023/12/31 08:06:34;;;;;;;1999.90;999.90;;;11.60;99.90;;;;;;5049247;28;20045;-77
2023/12/31 08:09:00;;;;;;;1999.90;999.90;;;11.70;99.90;;;;;;5022415;28;20476;-77
2023/12/31 08:11:26;;;;;;;1999.90;999.90;;;11.70;99.90;;;;;;5052142;28;20033;-77
2023/12/31 08:13:51;;;;;;;1999.90;999.90;;;11.60;99.90;;;;;;5055078;28;20029;-76
2023/12/31 08:16:19;;;;;;;1999.90;999.90;;;10.70;99.90;;;;;;5053265;28;20045;-77
2023/12/31 08:18:45;;;;;;;1999.90;999.90;;;9.60;99.90;;;;;;5054744;28;20021;-76
2023/12/31 08:21:11;;;;;;;1999.90;999.90;;;9.20;99.90;;;;;;5054467;28;20476;-77
2023/12/31 08:23:36;;;;;;;1999.90;999.90;;;9.20;99.90;;;;;;5028926;28;20024;-76
2023/12/31 08:26:03;;;;;;;1999.90;999.90;;;9.20;99.90;;;;;;5048765;28;20502;-77
2023/12/31 08:28:30;;;;;;;1999.90;999.90;;;9.30;99.90;;;;;;5054817;28;20021;-76
2023/12/31 08:30:55;;;;;;;1999.90;999.90;;;9.30;99.90;;;;;;5054421;28;20043;-77
2023/12/31 08:33:21;;;;;;;1999.90;999.90;;;9.40;99.90;;;;;;5054258;28;20096;-77
2023/12/31 08:35:47;;;;;;;1999.90;999.90;;;9.60;99.90;;;;;;5054127;28;20398;-76
2023/12/31 08:38:13;;;;;;;1999.90;999.90;;;9.70;99.90;;;;;;5053730;28;20396;-77
2023/12/31 08:40:39;;;;;;;1999.90;999.90;;;9.80;99.90;;;;;;5045943;28;20032;-77
2023/12/31 08:43:04;;;;;;;1999.90;999.90;;;9.90;99.90;;;;;;5034462;28;20021;-77
2023/12/31 08:45:32;;;;;;;1999.90;999.90;;;10.00;99.90;;;;;;5034034;28;20137;-77
2023/12/31 08:47:58;;;;;;;1999.90;999.90;;;10.20;99.90;;;;;;5033377;28;20043;-78
2023/12/31 08:50:24;;;;;;;1999.90;999.90;;;10.20;99.90;;;;;;5034331;28;20117;-75
2023/12/31 08:52:49;;;;;;;1999.90;999.90;;;10.30;99.90;;;;;;5034298;28;20030;-78
2023/12/31 08:55:16;;;;;;;1999.90;999.90;;;10.30;99.90;;;;;;5034181;28;20066;-78
2023/12/31 08:57:46;;;;;;;1999.90;999.90;;;10.30;99.90;;;;;;5034064;28;20029;-79
2023/12/31 09:00:12;;;;;;;1999.90;999.90;;;10.40;99.90;;;;;;5016177;28;20022;-77
2023/12/31 09:02:38;;;;;;;1999.90;999.90;;;10.30;99.90;;;;;;5034042;28;20029;-78
2023/12/31 09:05:04;;;;;;;1999.90;999.90;;;10.30;99.90;;;;;;5034151;28;20401;-77
2023/12/31 09:07:31;;;;;;;1999.90;999.90;;;10.30;99.90;;;;;;5032698;28;20029;-78
2023/12/31 09:09:57;;;;;;;1999.90;999.90;;;10.20;99.90;;;;;;5038522;28;20021;-78
2023/12/31 09:12:22;;;;;;;1999.90;999.90;;;10.20;99.90;;;;;;5053901;28;20035;-78
2023/12/31 09:14:48;;;;;;;1999.90;999.90;;;10.20;99.90;;;;;;5053834;28;20069;-78
2023/12/31 09:17:14;;;;;;;1999.90;999.90;;;10.20;99.90;;;;;;5052320;28;20119;-79
2023/12/31 09:19:40;;;;;;;1999.90;999.90;;;10.20;99.90;;;;;;5052990;28;20021;-78
2023/12/31 09:22:06;;;;;;;1999.90;999.90;;;10.30;99.90;;;;;;5051475;28;20487;-78
2023/12/31 09:24:32;;;;;;;1999.90;999.90;;;10.40;99.90;;;;;;5027194;28;20032;-78
2023/12/31 09:26:58;;;;;;;1999.90;999.90;;;10.50;99.90;;;;;;5050127;28;20444;-78
2023/12/31 09:29:24;;;;;;;1999.90;999.90;;;10.50;99.90;;;;;;5053720;28;20032;-77
2023/12/31 09:31:49;;;;;;;1999.90;999.90;;;10.50;99.90;;;;;;5053136;28;20039;-77
2023/12/31 09:34:15;;;;;;;1999.90;999.90;;;10.50;99.90;;;;;;5053441;28;20111;-78
2023/12/31 09:36:41;;;;;;;1999.90;999.90;;;10.50;99.90;;;;;;5053186;28;20032;-78
2023/12/31 09:39:08;;;;;;;1999.90;999.90;;;10.50;99.90;;;;;;5053087;28;20559;-78
2023/12/31 09:41:35;;;;;;;1999.90;999.90;;;10.60;99.90;;;;;;5053316;28;20096;-77
2023/12/31 09:44:03;;;;;;;1999.90;999.90;;;10.80;99.90;;;;;;5053233;28;20016;-77
2023/12/31 09:46:36;;;;;;;1999.90;999.90;;;10.90;99.90;;;;;;5048158;28;20059;-78
2023/12/31 09:49:03;;;;;;;1999.90;999.90;;;11.10;99.90;;;;;;5041932;28;20119;-79
2023/12/31 09:51:29;;;;;;;1999.90;999.90;;;11.20;99.90;;;;;;5033105;28;20036;-79
2023/12/31 09:53:56;;;;;;;1999.90;999.90;;;11.30;99.90;;;;;;5033298;28;20496;-76
2023/12/31 09:56:23;;;;;;;1999.90;999.90;;;11.30;99.90;;;;;;5032948;28;20017;-76
2023/12/31 09:58:51;;;;;;;1999.90;999.90;;;11.30;99.90;;;;;;5033505;28;20025;-78
2023/12/31 10:01:17;;;;;;;1999.90;999.90;;;11.30;99.90;;;;;;5032411;28;20024;-78
2023/12/31 10:03:45;;;;;;;1999.90;999.90;;;11.40;99.90;;;;;;5033229;28;20108;-78
2023/12/31 10:06:11;;;;;;;1999.90;999.90;;;11.50;99.90;;;;;;5033007;28;20033;-79
2023/12/31 10:08:39;;;;;;;1999.90;999.90;;;11.50;99.90;;;;;;5032678;28;20105;-78
2023/12/31 10:11:06;;;;;;;1999.90;999.90;;;11.50;99.90;;;;;;5029427;28;20033;-80
2023/12/31 10:13:31;;;;;;;1999.90;999.90;;;11.60;99.90;;;;;;5051508;28;20083;-78
2023/12/31 10:15:57;;;;;;;1999.90;999.90;;;11.60;99.90;;;;;;5052408;28;20049;-78
2023/12/31 10:18:26;;;;;;;1999.90;999.90;;;11.60;99.90;;;;;;5052697;28;20105;-78
2023/12/31 10:20:52;;;;;;;1999.90;999.90;;;11.70;99.90;;;;;;5052110;28;20025;-79
2023/12/31 10:23:18;;;;;;;1999.90;999.90;;;11.70;99.90;;;;;;5044040;28;20025;-78
2023/12/31 10:25:44;;;;;;;1999.90;999.90;;;11.70;99.90;;;;;;5046910;28;20565;-78
2023/12/31 10:28:10;;;;;;;1999.90;999.90;;;11.80;99.90;;;;;;5052654;28;20039;-79
2023/12/31 10:30:41;;;;;;;1999.90;999.90;;;11.90;99.90;;;;;;5052766;28;20442;-76
2023/12/31 10:33:15;;;;;;;1999.90;999.90;;;11.90;99.90;;;;;;5052088;28;20391;-77
2023/12/31 10:35:41;;;;;;;1999.90;999.90;;;11.90;99.90;;;;;;5052640;28;20377;-73
2023/12/31 10:38:07;;;;;;;1999.90;999.90;;;11.80;99.90;;;;;;5052243;28;20036;-78
2023/12/31 10:40:36;;;;;;;1999.90;999.90;;;11.80;99.90;;;;;;5052147;28;20025;-78
2023/12/31 10:43:07;;;;;;;1999.90;999.90;;;11.80;99.90;;;;;;5052495;28;20025;-79
2023/12/31 10:45:33;;;;;;;1999.90;999.90;;;11.90;99.90;;;;;;5052188;28;20096;-78
2023/12/31 10:48:03;;;;;;;1999.90;999.90;;;11.80;99.90;;;;;;5052424;28;20373;-78
2023/12/31 10:50:30;;;;;;;1999.90;999.90;;;11.90;99.90;;;;;;5052538;28;20078;-80
2023/12/31 10:53:01;;;;;;;1999.90;999.90;;;12.20;99.90;;;;;;5052316;28;20033;-82
2023/12/31 10:55:27;;;;;;;1999.90;999.90;;;12.20;99.90;;;;;;5052592;28;20072;-76
2023/12/31 10:57:53;;;;;;;1999.90;999.90;;;12.20;99.90;;;;;;5034187;28;20400;-79
2023/12/31 11:00:19;;;;;;;1999.90;999.90;;;12.20;99.90;;;;;;5052452;28;20052;-79
2023/12/31 11:02:49;;;;;;;1999.90;999.90;;;12.30;99.90;;;;;;5034444;28;20475;-78
2023/12/31 11:05:17;;;;;;;1999.90;999.90;;;12.30;99.90;;;;;;5052143;28;20032;-79
2023/12/31 11:07:45;;;;;;;1999.90;999.90;;;12.30;99.90;;;;;;5034525;28;20399;-79
2023/12/31 11:10:12;;;;;;;1999.90;999.90;;;12.30;99.90;;;;;;5051703;28;20017;-77
2023/12/31 11:12:39;;;;;;;1999.90;999.90;;;12.40;99.90;;;;;;5052147;28;20441;-76
2023/12/31 11:15:13;;;;;;;1999.90;999.90;;;12.40;99.90;;;;;;5052144;28;20064;-77
2023/12/31 11:17:53;;;;;;;1999.90;999.90;;;12.70;99.90;;;;;;5052117;28;20037;-77
2023/12/31 11:20:39;;;;;;;1999.90;999.90;;;12.90;99.90;;;;;;5052087;28;20028;-74
2023/12/31 11:23:17;;;;;;;1999.90;999.90;;;12.90;99.90;;;;;;5045215;28;20037;-78
2023/12/31 11:25:47;;;;;;;1999.90;999.90;;;11.00;99.90;;;;;;5043928;28;20022;-78
2023/12/31 11:28:13;;;;;;;1999.90;999.90;;;9.70;99.90;;;;;;5051373;28;20029;-77
2023/12/31 11:30:53;;;;;;;1999.90;999.90;;;9.40;99.90;;;;;;5052239;28;20118;-76
2023/12/31 11:33:24;;;;;;;1999.90;999.90;;;9.40;99.90;;;;;;5051769;28;20061;-77
2023/12/31 11:35:52;;;;;;;1999.90;999.90;;;9.40;99.90;;;;;;5053064;28;20557;-73
2023/12/31 11:38:21;;;;;;;1999.90;999.90;;;9.60;99.90;;;;;;5055632;28;20103;-77
2023/12/31 11:40:48;;;;;;;1999.90;999.90;;;9.70;99.90;;;;;;5037274;28;20108;-78
2023/12/31 11:43:16;;;;;;;1999.90;999.90;;;10.00;99.90;;;;;;5055446;28;20045;-78
2023/12/31 11:45:44;;;;;;;1999.90;999.90;;;10.40;99.90;;;;;;5055355;28;20017;-78
2023/12/31 11:48:30;;;;;;;1999.90;999.90;;;10.80;99.90;;;;;;5055430;28;20040;-78
2023/12/31 11:51:06;;;;;;;1999.90;999.90;;;11.20;99.90;;;;;;5055100;28;20040;-79
2023/12/31 11:53:48;;;;;;;1999.90;999.90;;;11.70;99.90;;;;;;5055363;28;20021;-78
2023/12/31 11:56:14;;;;;;;1999.90;999.90;;;11.90;99.90;;;;;;5055214;28;20031;-79
2023/12/31 11:58:42;;;;;;;1999.90;999.90;;;12.10;99.90;;;;;;5055363;28;20112;-79